createdAt,value
2018-08-22T00:01:32.191Z,80.30
2018-08-22T00:06:35.238Z,80.60
2018-08-22T00:11:38.209Z,80.80
2018-08-22T00:16:41.182Z,81.40
2018-08-22T00:21:44.281Z,81.80
2018-08-22T00:26:47.270Z,82.30
2018-08-22T00:31:50.246Z,82.50
2018-08-22T00:36:53.265Z,83.00
2018-08-22T00:41:56.342Z,83.40
2018-08-22T00:46:59.434Z,83.70
2018-08-22T00:52:02.400Z,83.90
2018-08-22T00:57:05.375Z,84.70
2018-08-22T01:02:08.337Z,84.60
2018-08-22T01:07:11.314Z,84.70
2018-08-22T01:12:14.398Z,85.00
2018-08-22T01:17:17.489Z,85.30
2018-08-22T01:22:20.613Z,85.30
2018-08-22T01:27:23.954Z,85.50
2018-08-22T01:32:27.062Z,86.00
2018-08-22T01:37:30.058Z,86.40
2018-08-22T01:42:33.039Z,86.60
2018-08-22T01:47:36.013Z,86.70
2018-08-22T01:52:38.996Z,86.70
2018-08-22T01:57:42.002Z,87.30
2018-08-22T02:02:45.270Z,87.30
2018-08-22T02:07:48.250Z,87.60
2018-08-22T02:12:51.267Z,87.80
2018-08-22T02:17:54.590Z,88.10
2018-08-22T02:22:57.819Z,88.20
2018-08-22T02:28:00.886Z,88.30
2018-08-22T02:33:03.884Z,88.50
2018-08-22T02:38:06.918Z,88.90
2018-08-22T02:43:09.913Z,89.00
2018-08-22T02:48:12.943Z,89.00
2018-08-22T02:53:16.070Z,89.60
2018-08-22T02:58:19.066Z,89.50
2018-08-22T03:03:22.118Z,89.90
2018-08-22T03:08:25.291Z,90.00
2018-08-22T03:13:28.534Z,90.10
2018-08-22T03:18:31.547Z,90.30
2018-08-22T03:23:34.541Z,90.20
2018-08-22T03:28:37.534Z,90.10
2018-08-22T03:33:40.542Z,90.40
2018-08-22T03:38:43.695Z,90.40
2018-08-22T03:43:46.771Z,90.40
2018-08-22T03:48:49.757Z,90.50
2018-08-22T03:53:52.945Z,90.50
2018-08-22T03:58:56.141Z,90.50
2018-08-22T04:03:59.258Z,90.40
2018-08-22T04:09:02.298Z,90.30
2018-08-22T04:14:05.337Z,90.40
2018-08-22T04:19:08.325Z,90.50
2018-08-22T04:24:11.310Z,90.60
2018-08-22T04:29:14.499Z,90.70
2018-08-22T04:34:17.494Z,90.60
2018-08-22T04:39:20.498Z,90.60
2018-08-22T04:44:23.522Z,90.80
2018-08-22T04:49:26.853Z,90.80
2018-08-22T04:54:29.882Z,90.80
2018-08-22T04:59:32.891Z,90.90
2018-08-22T05:04:35.882Z,90.80
2018-08-22T05:09:38.871Z,90.80
2018-08-22T05:14:41.890Z,90.90
2018-08-22T05:19:44.883Z,90.60
2018-08-22T05:24:47.938Z,90.60
2018-08-22T05:29:50.930Z,90.10
2018-08-22T05:34:54.218Z,90.50
2018-08-22T05:39:57.746Z,90.10
2018-08-22T05:45:00.945Z,89.60
2018-08-22T05:50:04.258Z,89.40
2018-08-22T05:55:07.251Z,88.90
2018-08-22T06:00:10.257Z,89.60
2018-08-22T06:05:13.298Z,88.60
2018-08-22T06:10:16.382Z,87.40
2018-08-22T06:15:19.367Z,86.40
2018-08-22T06:20:22.382Z,84.90
2018-08-22T06:25:25.462Z,83.80
2018-08-22T06:30:28.647Z,82.40
2018-08-22T06:35:31.702Z,80.90
2018-08-22T06:40:34.689Z,79.70
2018-08-22T06:45:37.683Z,78.50
2018-08-22T06:50:40.714Z,76.80
2018-08-22T06:55:43.846Z,75.90
2018-08-22T07:00:46.851Z,74.40
2018-08-22T07:05:49.849Z,72.80
2018-08-22T07:10:52.906Z,72.10
2018-08-22T07:15:56.164Z,70.40
2018-08-22T07:20:59.267Z,69.00
2018-08-22T07:26:02.180Z,66.80
2018-08-22T07:31:05.246Z,65.20
2018-08-22T07:36:08.234Z,62.00
2018-08-22T07:41:12.238Z,60.50
2018-08-22T07:46:15.322Z,59.10
2018-08-22T07:51:18.366Z,56.50
2018-08-22T07:56:22.294Z,55.00
2018-08-22T08:01:25.510Z,54.50
2018-08-22T08:06:28.547Z,51.00
2018-08-22T08:11:31.550Z,50.10
2018-08-22T08:16:34.650Z,49.90
2018-08-22T08:21:37.998Z,49.70
2018-08-22T08:26:41.006Z,47.00
2018-08-22T08:31:44.010Z,44.60
2018-08-22T08:36:47.046Z,41.20
2018-08-22T08:41:50.063Z,39.40
2018-08-22T08:46:53.560Z,38.40
2018-08-22T08:51:57.803Z,38.80
2018-08-22T08:57:00.846Z,37.20
2018-08-22T09:02:03.859Z,34.80
2018-08-22T09:07:06.882Z,32.60
2018-08-22T09:12:09.950Z,33.50
2018-08-22T09:17:13.035Z,32.20
2018-08-22T09:22:16.024Z,31.50
2018-08-22T09:27:19.017Z,30.80
2018-08-22T09:32:22.075Z,28.00
2018-08-22T09:37:25.148Z,27.60
2018-08-22T09:42:28.302Z,28.80
2018-08-22T09:47:31.342Z,30.30
2018-08-22T09:52:34.363Z,29.10
2018-08-22T09:57:37.363Z,30.20
2018-08-22T10:02:40.365Z,30.20
2018-08-22T10:07:43.398Z,31.50
2018-08-22T10:12:46.498Z,31.50
2018-08-22T10:17:49.511Z,29.70
2018-08-22T10:22:52.522Z,30.00
2018-08-22T10:27:55.715Z,30.20
2018-08-22T10:32:58.749Z,30.00
2018-08-22T10:38:02.022Z,30.30
2018-08-22T10:43:05.050Z,30.30
2018-08-22T10:48:08.106Z,29.90
2018-08-22T10:53:11.043Z,30.00
2018-08-22T10:58:14.050Z,30.10
2018-08-22T11:03:17.055Z,29.40
2018-08-22T11:08:20.050Z,29.20
2018-08-22T11:13:23.090Z,29.00
2018-08-22T11:18:26.391Z,28.70
2018-08-22T11:23:40.669Z,27.60
2018-08-22T11:28:55.061Z,28.00
2018-08-22T11:34:09.528Z,28.40
2018-08-22T11:39:12.551Z,27.20
2018-08-22T11:44:15.755Z,27.40
2018-08-22T11:49:18.802Z,25.60
2018-08-22T11:54:21.835Z,26.80
2018-08-22T11:59:24.967Z,26.50
2018-08-22T12:04:28.142Z,26.40
2018-08-22T12:09:31.141Z,26.70
2018-08-22T12:14:34.146Z,26.30
2018-08-22T12:19:37.163Z,25.80
2018-08-22T12:24:40.166Z,26.30
2018-08-22T12:29:43.186Z,25.40
2018-08-22T12:34:46.198Z,25.80
2018-08-22T12:39:49.207Z,26.00
2018-08-22T12:44:52.592Z,25.90
2018-08-22T12:49:55.655Z,25.30
2018-08-22T12:54:58.650Z,25.70
2018-08-22T13:00:01.699Z,25.90
2018-08-22T13:05:04.714Z,25.50
2018-08-22T13:10:07.726Z,23.80
2018-08-22T13:15:10.813Z,25.10
2018-08-22T13:20:13.882Z,24.70
2018-08-22T13:25:16.882Z,25.60
2018-08-22T13:30:19.908Z,24.90
2018-08-22T13:35:23.102Z,25.40
2018-08-22T13:40:26.203Z,25.60
2018-08-22T13:45:29.354Z,25.50
2018-08-22T13:50:32.349Z,25.40
2018-08-22T13:55:35.366Z,25.60
2018-08-22T14:00:38.373Z,25.70
2018-08-22T14:05:41.450Z,25.20
2018-08-22T14:10:44.633Z,24.80
2018-08-22T14:15:47.703Z,24.30
2018-08-22T14:20:50.732Z,24.00
2018-08-22T14:25:54.381Z,24.20
2018-08-22T14:30:57.566Z,24.10
2018-08-22T14:36:00.613Z,24.60
2018-08-22T14:41:03.609Z,25.40
2018-08-22T14:46:06.598Z,25.40
2018-08-22T14:51:09.650Z,25.60
2018-08-22T14:56:12.883Z,26.10
2018-08-22T15:01:15.855Z,26.00
2018-08-22T15:21:51.338Z,25.90
2018-08-22T15:26:54.342Z,27.80
2018-08-22T15:31:57.362Z,28.20
2018-08-22T15:37:00.367Z,28.90
2018-08-22T15:42:03.472Z,28.80
2018-08-22T15:47:06.434Z,29.20
2018-08-22T15:52:09.411Z,29.90
2018-08-22T15:57:12.415Z,30.10
2018-08-22T16:02:15.433Z,30.60
2018-08-22T16:07:18.442Z,31.00
2018-08-22T16:12:21.443Z,31.70
2018-08-22T16:17:24.447Z,31.60
2018-08-22T16:22:27.459Z,32.20
2018-08-22T16:27:30.886Z,32.90
2018-08-22T16:32:33.891Z,33.00
2018-08-22T16:37:38.045Z,33.10
2018-08-22T16:42:41.051Z,33.60
2018-08-22T16:47:44.082Z,33.50
2018-08-22T16:52:47.189Z,34.00
2018-08-22T16:57:50.982Z,34.30
2018-08-22T17:02:53.991Z,34.70
2018-08-22T17:07:57.148Z,34.70
2018-08-22T17:13:00.166Z,35.30
2018-08-22T17:18:03.175Z,35.90
2018-08-22T17:23:06.250Z,36.10
2018-08-22T17:28:09.198Z,36.80
2018-08-22T17:33:12.719Z,37.60
2018-08-22T17:38:15.718Z,38.20
2018-08-22T17:43:20.541Z,40.00
2018-08-22T17:48:23.631Z,41.30
2018-08-22T17:53:27.067Z,42.40
2018-08-22T17:58:30.247Z,43.10
2018-08-22T18:03:33.250Z,44.20
2018-08-22T18:08:36.369Z,45.00
2018-08-22T18:13:39.407Z,46.30
2018-08-22T18:18:42.414Z,46.80
2018-08-22T18:23:51.645Z,46.80
2018-08-22T18:28:54.710Z,47.80
2018-08-22T18:34:00.717Z,47.20
2018-08-22T18:39:07.816Z,47.70
2018-08-22T18:44:10.958Z,48.50
2018-08-22T18:49:14.359Z,49.30
2018-08-22T18:54:17.575Z,49.60
2018-08-22T18:59:24.892Z,50.70
2018-08-22T19:04:28.251Z,51.40
2018-08-22T19:09:31.434Z,51.80
2018-08-22T19:14:44.018Z,52.70
2018-08-22T19:19:48.314Z,53.10
2018-08-22T19:25:03.395Z,53.70
2018-08-22T19:30:07.127Z,54.00
2018-08-22T19:35:10.331Z,54.20
2018-08-22T19:40:13.337Z,54.70
2018-08-22T19:45:16.449Z,55.70
2018-08-22T19:50:19.886Z,56.10
2018-08-22T19:55:23.303Z,57.80
2018-08-22T20:00:26.470Z,58.10
2018-08-22T20:05:49.615Z,58.90
2018-08-22T20:10:52.675Z,59.30
2018-08-22T20:15:55.727Z,59.00
2018-08-22T20:20:59.010Z,60.10
2018-08-22T20:26:02.019Z,60.60
2018-08-22T20:31:09.445Z,60.70
2018-08-22T20:36:12.910Z,61.20
2018-08-22T20:41:16.654Z,61.80
2018-08-22T20:46:19.775Z,62.70
2018-08-22T20:51:22.798Z,63.30
2018-08-22T20:56:25.819Z,63.80
2018-08-22T21:01:28.842Z,64.10
2018-08-22T21:06:31.863Z,64.70
2018-08-22T21:11:35.882Z,65.50
2018-08-22T21:16:39.212Z,66.20
2018-08-22T21:21:42.246Z,66.00
2018-08-22T21:26:45.682Z,65.70
2018-08-22T21:31:48.698Z,68.00
2018-08-22T21:36:51.723Z,67.60
2018-08-22T21:41:54.924Z,67.60
2018-08-22T21:47:03.110Z,68.60
2018-08-22T21:52:06.134Z,68.10
2018-08-22T21:57:09.167Z,69.90
2018-08-22T22:02:12.506Z,70.20
2018-08-22T22:07:15.536Z,71.00
2018-08-22T22:12:23.978Z,71.40
2018-08-22T22:17:27.005Z,71.30
2018-08-22T22:22:30.134Z,72.80
2018-08-22T22:27:33.158Z,72.20
2018-08-22T22:32:36.170Z,72.60
2018-08-22T22:37:39.194Z,73.60
2018-08-22T22:42:42.198Z,73.70
2018-08-22T22:47:45.222Z,73.50
2018-08-22T22:52:48.330Z,73.90
2018-08-22T22:57:51.350Z,73.90
2018-08-22T23:02:59.819Z,74.50
2018-08-22T23:08:03.178Z,74.60
2018-08-22T23:13:06.201Z,74.70
2018-08-22T23:18:09.235Z,74.90
2018-08-22T23:23:29.307Z,75.30
2018-08-22T23:28:32.315Z,74.80
2018-08-22T23:33:35.351Z,75.30
2018-08-22T23:38:38.379Z,75.10
2018-08-22T23:43:46.958Z,75.20
2018-08-22T23:48:55.187Z,76.00
2018-08-22T23:53:59.444Z,76.10
2018-08-22T23:59:02.510Z,76.30
